createdAt,value
2023-02-04T00:00:30.446Z,9.90
2023-02-04T00:01:34.131Z,8.27
2023-02-04T00:02:38.177Z,7.93
2023-02-04T00:03:40.464Z,9.55
2023-02-04T00:04:42.684Z,8.80
2023-02-04T00:05:44.954Z,9.25
2023-02-04T00:06:47.142Z,8.02
2023-02-04T00:07:49.376Z,8.25
2023-02-04T00:08:52.117Z,11.70
2023-02-04T00:09:54.382Z,8.40
2023-02-04T00:10:56.689Z,9.98
2023-02-04T00:11:58.886Z,10.05
2023-02-04T00:13:01.131Z,9.32
2023-02-04T00:14:03.415Z,12.50
2023-02-04T00:15:06.174Z,10.38
2023-02-04T00:16:08.397Z,10.82
2023-02-04T00:17:12.938Z,13.15
2023-02-04T00:18:15.226Z,8.15
2023-02-04T00:19:17.485Z,11.88
2023-02-04T00:20:19.891Z,10.15
2023-02-04T00:21:22.258Z,11.88
2023-02-04T00:22:26.490Z,9.45
2023-02-04T00:23:28.803Z,10.57
2023-02-04T00:24:31.249Z,10.25
2023-02-04T00:25:33.446Z,8.43
2023-02-04T00:26:35.674Z,10.85
2023-02-04T00:27:38.667Z,8.60
2023-02-04T00:28:40.835Z,8.10
2023-02-04T00:29:43.100Z,9.82
2023-02-04T00:30:45.411Z,7.88
2023-02-04T00:31:47.673Z,8.07
2023-02-04T00:32:54.584Z,10.18
2023-02-04T00:33:56.876Z,9.40
2023-02-04T00:34:59.414Z,9.07
2023-02-04T00:36:01.612Z,10.43
2023-02-04T00:37:03.831Z,10.70
2023-02-04T00:38:06.696Z,11.25
2023-02-04T00:39:08.963Z,8.88
2023-02-04T00:40:11.852Z,11.20
2023-02-04T00:41:15.213Z,11.20
2023-02-04T00:42:17.659Z,8.98
2023-02-04T00:43:19.905Z,9.95
2023-02-04T00:44:22.161Z,12.27
2023-02-04T00:45:24.695Z,11.18
2023-02-04T00:46:27.004Z,13.27
2023-02-04T00:47:29.359Z,10.68
2023-02-04T00:48:31.952Z,9.07
2023-02-04T00:49:34.974Z,10.55
2023-02-04T00:50:39.751Z,10.85
2023-02-04T00:51:46.302Z,9.23
2023-02-04T00:52:48.541Z,13.88
2023-02-04T00:53:51.153Z,10.73
2023-02-04T00:54:53.373Z,11.80
2023-02-04T00:55:55.546Z,9.52
2023-02-04T00:56:58.010Z,7.95
2023-02-04T00:58:00.356Z,10.52
2023-02-04T00:59:02.616Z,8.85
2023-02-04T01:00:05.944Z,7.60
2023-02-04T01:01:08.182Z,8.43
2023-02-04T01:02:10.412Z,9.38
2023-02-04T01:03:12.719Z,8.18
2023-02-04T01:04:16.012Z,8.20
2023-02-04T01:05:19.800Z,10.23
2023-02-04T01:06:22.163Z,9.00
2023-02-04T01:07:24.878Z,10.73
2023-02-04T01:08:28.408Z,7.85
2023-02-04T01:09:30.937Z,9.93
2023-02-04T01:10:33.754Z,10.73
2023-02-04T01:11:36.627Z,8.85
2023-02-04T01:12:39.039Z,6.45
2023-02-04T01:13:41.675Z,5.18
2023-02-04T01:14:44.082Z,6.38
2023-02-04T01:15:46.861Z,4.05
2023-02-04T01:16:50.369Z,3.47
2023-02-04T01:17:52.713Z,4.50
2023-02-04T01:18:55.912Z,2.92
2023-02-04T01:19:59.827Z,3.72
2023-02-04T01:21:02.077Z,3.63
2023-02-04T01:22:04.287Z,3.22
2023-02-04T01:23:07.815Z,3.67
2023-02-04T01:24:10.066Z,4.22
2023-02-04T01:25:32.379Z,4.30
2023-02-04T01:26:35.274Z,3.22
2023-02-04T01:27:37.505Z,3.50
2023-02-04T01:28:39.680Z,3.40
2023-02-04T01:29:41.939Z,3.78
2023-02-04T01:30:44.183Z,4.55
2023-02-04T01:31:46.634Z,4.97
2023-02-04T01:32:48.834Z,4.25
2023-02-04T01:33:51.296Z,4.07
2023-02-04T01:34:53.969Z,5.82
2023-02-04T01:35:56.844Z,4.25
2023-02-04T01:36:59.106Z,4.25
2023-02-04T01:38:01.398Z,5.03
2023-02-04T01:39:04.879Z,6.20
2023-02-04T01:40:07.831Z,4.65
2023-02-04T01:41:10.230Z,7.93
2023-02-04T01:42:12.614Z,4.63
2023-02-04T01:43:15.620Z,7.32
2023-02-04T01:44:17.865Z,6.07
2023-02-04T01:45:20.218Z,4.93
2023-02-04T01:46:22.411Z,3.85
2023-02-04T01:47:25.501Z,3.75
2023-02-04T01:48:27.809Z,4.65
2023-02-04T01:49:30.044Z,3.90
2023-02-04T01:50:33.425Z,5.10
2023-02-04T01:51:37.031Z,2.30
2023-02-04T01:52:40.456Z,6.15
2023-02-04T01:53:42.906Z,3.63
2023-02-04T01:54:45.219Z,4.28
2023-02-04T01:55:47.952Z,2.53
2023-02-04T01:56:51.646Z,4.10
2023-02-04T01:57:54.258Z,6.80
2023-02-04T01:58:58.623Z,3.97
2023-02-04T02:02:39.520Z,2.35
2023-02-04T02:03:42.431Z,3.47
2023-02-04T02:04:44.664Z,3.58
2023-02-04T02:05:51.146Z,3.67
2023-02-04T02:06:58.579Z,4.95
2023-02-04T02:08:03.283Z,6.25
2023-02-04T02:09:05.944Z,4.53
2023-02-04T02:10:10.775Z,3.42
2023-02-04T02:11:12.911Z,3.63
2023-02-04T02:12:15.120Z,3.22
2023-02-04T02:13:19.024Z,2.55
2023-02-04T02:14:22.464Z,5.07
2023-02-04T02:15:26.609Z,3.88
2023-02-04T02:16:28.851Z,5.20
2023-02-04T02:17:31.269Z,6.00
2023-02-04T02:18:33.571Z,6.45
2023-02-04T02:19:38.184Z,5.88
2023-02-04T02:20:43.683Z,10.27
2023-02-04T02:22:29.219Z,5.90
2023-02-04T02:23:54.700Z,9.13
2023-02-04T02:24:56.937Z,7.38
2023-02-04T02:25:59.102Z,10.32
2023-02-04T02:27:08.345Z,6.32
2023-02-04T02:28:13.909Z,10.90
2023-02-04T02:29:16.221Z,8.65
2023-02-04T02:30:19.892Z,8.02
2023-02-04T02:31:23.684Z,9.05
2023-02-04T02:32:26.120Z,7.18
2023-02-04T02:33:28.700Z,8.38
2023-02-04T02:34:31.764Z,6.18
2023-02-04T02:35:34.631Z,5.63
2023-02-04T02:36:37.071Z,6.63
2023-02-04T02:37:39.394Z,9.23
2023-02-04T02:38:42.053Z,8.13
2023-02-04T02:39:45.883Z,6.35
2023-02-04T02:40:49.852Z,6.53
2023-02-04T02:41:52.354Z,7.28
2023-02-04T02:42:54.871Z,4.15
2023-02-04T02:43:57.091Z,5.80
2023-02-04T02:45:03.221Z,4.97
2023-02-04T02:46:06.453Z,6.88
2023-02-04T02:47:14.849Z,6.82
2023-02-04T02:48:17.496Z,6.05
2023-02-04T02:49:20.221Z,7.65
2023-02-04T02:50:25.757Z,5.32
2023-02-04T02:51:28.367Z,7.22
2023-02-04T02:52:30.732Z,9.95
2023-02-04T02:53:33.019Z,9.90
2023-02-04T02:54:35.344Z,6.28
2023-02-04T02:55:40.995Z,8.43
2023-02-04T02:56:43.375Z,9.82
2023-02-04T02:57:47.418Z,5.72
2023-02-04T02:58:49.639Z,8.05
2023-02-04T02:59:52.266Z,4.85
2023-02-04T03:00:54.695Z,10.30
2023-02-04T03:02:02.014Z,8.00
2023-02-04T03:03:15.834Z,6.15
2023-02-04T03:04:20.345Z,7.13
2023-02-04T03:05:23.956Z,10.05
2023-02-04T03:06:26.622Z,6.85
2023-02-04T03:07:28.877Z,7.32
2023-02-04T03:08:31.189Z,6.88
2023-02-04T03:09:34.237Z,5.82
2023-02-04T03:10:36.861Z,7.70
2023-02-04T03:11:39.104Z,6.63
2023-02-04T03:12:43.168Z,7.25
2023-02-04T03:13:45.476Z,8.10
2023-02-04T03:14:47.668Z,7.68
2023-02-04T03:15:50.179Z,9.05
2023-02-04T03:16:54.208Z,6.57
2023-02-04T03:17:56.634Z,8.70
2023-02-04T03:19:02.625Z,10.38
2023-02-04T03:20:05.532Z,8.68
2023-02-04T03:21:08.163Z,9.52
2023-02-04T03:22:12.232Z,8.63
2023-02-04T03:23:15.173Z,8.02
2023-02-04T03:24:18.396Z,9.93
2023-02-04T03:25:24.423Z,10.00
2023-02-04T03:26:27.129Z,10.32
2023-02-04T03:27:29.492Z,8.88
2023-02-04T03:28:32.074Z,11.38
2023-02-04T03:29:34.288Z,10.50
2023-02-04T03:30:36.498Z,7.72
2023-02-04T03:31:39.029Z,12.13
2023-02-04T03:32:41.562Z,8.93
2023-02-04T03:33:43.790Z,9.57
2023-02-04T03:34:46.093Z,9.90
2023-02-04T03:35:48.311Z,12.30
2023-02-04T03:36:50.540Z,9.15
2023-02-04T03:37:52.789Z,12.52
2023-02-04T03:38:55.096Z,10.32
2023-02-04T03:39:57.296Z,12.65
2023-02-04T03:40:59.614Z,7.88
2023-02-04T03:42:01.853Z,10.63
2023-02-04T03:43:04.097Z,8.90
2023-02-04T03:44:06.284Z,15.52
2023-02-04T03:45:09.125Z,13.52
2023-02-04T03:46:11.612Z,12.68
2023-02-04T03:47:13.899Z,11.30
2023-02-04T03:48:16.145Z,10.02
2023-02-04T03:49:18.360Z,10.90
2023-02-04T03:50:20.602Z,12.30
2023-02-04T03:51:22.887Z,8.68
2023-02-04T03:52:25.179Z,12.25
2023-02-04T03:53:27.578Z,13.63
2023-02-04T03:54:29.770Z,8.68
2023-02-04T03:55:33.037Z,10.95
2023-02-04T03:56:35.265Z,11.20
2023-02-04T03:57:37.602Z,14.05
2023-02-04T03:58:39.865Z,13.90
2023-02-04T03:59:42.319Z,15.93
2023-02-04T04:00:44.600Z,10.80
2023-02-04T04:01:47.187Z,13.20
2023-02-04T04:02:50.335Z,15.40
2023-02-04T04:03:52.587Z,16.25
2023-02-04T04:04:54.765Z,12.60
2023-02-04T04:05:56.998Z,10.38
2023-02-04T04:06:59.291Z,13.13
2023-02-04T04:08:01.755Z,15.55
2023-02-04T04:09:04.856Z,15.57
2023-02-04T04:10:07.469Z,17.52
2023-02-04T04:11:09.708Z,11.60
2023-02-04T04:12:11.879Z,15.10
2023-02-04T04:13:14.298Z,16.67
2023-02-04T04:14:16.633Z,15.38
2023-02-04T04:15:18.818Z,13.95
2023-02-04T04:16:21.782Z,15.30
2023-02-04T04:17:24.008Z,11.85
2023-02-04T04:18:26.274Z,11.45
2023-02-04T04:19:28.469Z,12.00
2023-02-04T04:20:31.281Z,13.55
2023-02-04T04:21:33.689Z,17.38
2023-02-04T04:22:36.116Z,10.07
2023-02-04T04:23:38.393Z,10.57
2023-02-04T04:24:40.815Z,12.07
2023-02-04T04:25:43.010Z,11.68
2023-02-04T04:26:45.249Z,12.73
2023-02-04T04:27:47.485Z,10.80
2023-02-04T04:28:49.976Z,16.80
2023-02-04T04:29:52.253Z,11.32
2023-02-04T04:30:54.595Z,9.80
2023-02-04T04:31:56.961Z,15.30
2023-02-04T04:32:59.420Z,10.52
2023-02-04T04:34:02.130Z,12.27
2023-02-04T04:35:04.463Z,11.85
2023-02-04T04:36:07.485Z,11.65
2023-02-04T04:37:09.945Z,14.13
2023-02-04T04:38:12.139Z,13.77
2023-02-04T04:39:14.482Z,12.57
2023-02-04T04:40:17.107Z,13.23
2023-02-04T04:41:19.459Z,14.55
2023-02-04T04:42:21.630Z,12.32
2023-02-04T04:43:23.925Z,18.98
2023-02-04T04:44:26.226Z,11.65
2023-02-04T04:45:28.407Z,16.10
2023-02-04T04:46:31.101Z,20.02
2023-02-04T04:47:33.250Z,20.10
2023-02-04T04:48:35.406Z,20.92
2023-02-04T04:49:37.621Z,13.80
2023-02-04T04:50:39.947Z,12.23
2023-02-04T04:51:42.165Z,15.98
2023-02-04T04:52:44.414Z,16.17
2023-02-04T04:53:46.693Z,9.98
2023-02-04T04:54:49.025Z,18.77
2023-02-04T04:55:51.279Z,12.65
2023-02-04T04:56:53.571Z,14.27
2023-02-04T04:57:55.774Z,24.42
2023-02-04T04:58:57.986Z,15.63
2023-02-04T05:00:00.261Z,12.40
2023-02-04T05:01:02.693Z,24.50
2023-02-04T05:02:04.929Z,15.25
2023-02-04T05:03:07.614Z,11.90
2023-02-04T05:04:09.796Z,14.95
2023-02-04T05:05:12.550Z,13.00
2023-02-04T05:06:15.065Z,18.77
2023-02-04T05:07:17.375Z,21.08
2023-02-04T05:08:20.831Z,12.55
2023-02-04T05:09:23.200Z,12.23
2023-02-04T05:10:25.480Z,13.77
2023-02-04T05:11:27.749Z,16.63
2023-02-04T05:12:30.051Z,17.65
2023-02-04T05:13:32.550Z,11.63
2023-02-04T05:14:35.059Z,19.55
2023-02-04T05:15:37.324Z,17.42
2023-02-04T05:16:39.647Z,19.08
2023-02-04T05:17:41.897Z,22.98
2023-02-04T05:18:44.519Z,17.58
2023-02-04T05:19:46.700Z,18.17
2023-02-04T05:20:49.123Z,17.55
2023-02-04T05:21:51.365Z,19.48
2023-02-04T05:22:55.921Z,15.38
2023-02-04T05:23:58.120Z,19.80
2023-02-04T05:25:00.295Z,23.08
2023-02-04T05:26:02.548Z,15.88
2023-02-04T05:27:04.923Z,15.23
2023-02-04T05:28:07.263Z,17.85
2023-02-04T05:29:10.781Z,16.58
2023-02-04T05:30:13.678Z,14.32
2023-02-04T05:31:16.119Z,17.90
2023-02-04T05:32:18.379Z,19.20
2023-02-04T05:33:20.585Z,17.95
2023-02-04T05:34:22.750Z,16.20
2023-02-04T05:35:25.041Z,21.35
2023-02-04T05:36:27.337Z,20.55
2023-02-04T05:37:29.595Z,16.75
2023-02-04T05:38:31.825Z,19.27
2023-02-04T05:39:34.002Z,14.18
2023-02-04T05:40:36.354Z,19.25
2023-02-04T05:41:39.538Z,14.77
2023-02-04T05:42:41.913Z,15.95
2023-02-04T05:43:44.225Z,13.88
2023-02-04T05:44:46.567Z,14.73
2023-02-04T05:45:48.914Z,14.63
2023-02-04T05:46:51.223Z,13.27
2023-02-04T05:47:53.443Z,15.07
2023-02-04T05:48:55.649Z,12.65
2023-02-04T05:49:57.828Z,11.60
2023-02-04T05:51:00.072Z,15.52
2023-02-04T05:52:02.400Z,11.55
2023-02-04T05:53:04.667Z,12.65
2023-02-04T05:54:06.960Z,16.08
2023-02-04T05:55:11.460Z,15.93
2023-02-04T05:56:13.709Z,20.27
2023-02-04T05:57:15.950Z,17.38
2023-02-04T05:58:18.186Z,10.32
2023-02-04T05:59:20.442Z,15.40
2023-02-04T06:00:22.807Z,21.30
2023-02-04T06:01:24.997Z,16.05
2023-02-04T06:02:27.276Z,23.83
2023-02-04T06:03:30.941Z,18.45
2023-02-04T06:04:33.253Z,17.25
2023-02-04T06:05:35.531Z,14.02
2023-02-04T06:06:37.758Z,13.93
2023-02-04T06:07:39.987Z,17.13
2023-02-04T06:08:42.160Z,15.13
2023-02-04T06:09:44.843Z,13.63
2023-02-04T06:10:47.006Z,16.65
2023-02-04T06:11:49.259Z,18.05
2023-02-04T06:12:51.502Z,14.02
2023-02-04T06:13:53.817Z,16.15
2023-02-04T06:14:56.117Z,13.30
2023-02-04T06:15:58.489Z,18.10
2023-02-04T06:17:00.740Z,14.43
2023-02-04T06:18:03.109Z,12.43
2023-02-04T06:19:05.549Z,14.13
2023-02-04T06:20:08.437Z,18.10
2023-02-04T06:21:10.663Z,11.15
2023-02-04T06:22:12.870Z,15.07
2023-02-04T06:23:15.113Z,13.38
2023-02-04T06:24:17.458Z,15.68
2023-02-04T06:25:20.113Z,12.68
2023-02-04T06:26:22.443Z,15.48
2023-02-04T06:27:24.680Z,13.45
2023-02-04T06:28:26.864Z,15.15
2023-02-04T06:29:29.101Z,14.90
2023-02-04T06:30:31.994Z,16.58
2023-02-04T06:31:34.679Z,15.90
2023-02-04T06:32:36.918Z,17.33
2023-02-04T06:33:39.438Z,12.63
2023-02-04T06:34:41.609Z,16.40
2023-02-04T06:35:43.795Z,15.15
2023-02-04T06:36:46.015Z,15.90
2023-02-04T06:37:48.913Z,19.20
2023-02-04T06:38:51.099Z,20.35
2023-02-04T06:39:54.562Z,20.33
2023-02-04T06:40:56.823Z,11.80
2023-02-04T06:41:59.004Z,15.15
2023-02-04T06:43:01.162Z,12.73
2023-02-04T06:44:03.383Z,17.52
2023-02-04T06:45:06.089Z,23.88
2023-02-04T06:46:08.529Z,18.02
2023-02-04T06:47:10.830Z,11.38
2023-02-04T06:48:13.054Z,18.48
2023-02-04T06:49:15.280Z,19.10
2023-02-04T06:50:18.805Z,15.52
2023-02-04T06:51:21.052Z,15.13
2023-02-04T06:52:23.299Z,18.27
2023-02-04T06:53:25.825Z,17.85
2023-02-04T06:54:28.113Z,17.20
2023-02-04T06:55:30.399Z,14.95
2023-02-04T06:56:32.702Z,14.45
2023-02-04T06:57:34.899Z,23.42
2023-02-04T06:58:37.598Z,17.75
2023-02-04T06:59:41.375Z,15.18
2023-02-04T07:00:43.572Z,13.70
2023-02-04T07:01:46.258Z,14.25
2023-02-04T07:02:48.609Z,14.85
2023-02-04T07:03:50.998Z,16.20
2023-02-04T07:04:53.231Z,13.30
2023-02-04T07:05:55.467Z,20.67
2023-02-04T07:06:57.707Z,13.45
2023-02-04T07:08:00.125Z,11.18
2023-02-04T07:09:02.438Z,11.82
2023-02-04T07:10:04.974Z,16.35
2023-02-04T07:11:07.348Z,13.27
2023-02-04T07:12:09.602Z,13.95
2023-02-04T07:13:11.844Z,10.70
2023-02-04T07:14:14.104Z,13.30
2023-02-04T07:15:16.520Z,13.23
2023-02-04T07:16:18.819Z,16.15
2023-02-04T07:17:21.162Z,12.23
2023-02-04T07:18:23.731Z,15.15
2023-02-04T07:19:26.013Z,12.23
2023-02-04T07:20:28.230Z,20.73
2023-02-04T07:21:30.617Z,17.50
2023-02-04T07:22:32.823Z,17.08
2023-02-04T07:23:35.056Z,16.38
2023-02-04T07:24:37.329Z,14.05
2023-02-04T07:25:39.555Z,12.50
2023-02-04T07:26:41.787Z,13.18
2023-02-04T07:27:44.811Z,15.15
2023-02-04T07:28:47.294Z,19.05
2023-02-04T07:29:49.465Z,18.83
2023-02-04T07:30:52.099Z,18.70
2023-02-04T07:31:54.616Z,17.40
2023-02-04T07:32:57.112Z,16.73
2023-02-04T07:33:59.443Z,16.50
2023-02-04T07:35:01.825Z,21.08
2023-02-04T07:36:04.365Z,16.98
2023-02-04T07:37:06.645Z,15.60
2023-02-04T07:38:08.878Z,15.00
2023-02-04T07:39:11.262Z,19.13
2023-02-04T07:40:13.736Z,13.65
2023-02-04T07:41:15.927Z,8.98
2023-02-04T07:42:18.549Z,12.20
2023-02-04T07:43:28.141Z,15.18
2023-02-04T07:44:30.395Z,15.35
2023-02-04T07:45:32.756Z,8.23
2023-02-04T07:46:35.025Z,13.27
2023-02-04T07:47:37.227Z,12.85
2023-02-04T07:48:39.556Z,15.38
2023-02-04T07:49:41.828Z,13.73
2023-02-04T07:50:44.171Z,12.23
2023-02-04T07:51:46.470Z,13.65
2023-02-04T07:52:48.720Z,16.35
2023-02-04T07:53:50.971Z,15.40
2023-02-04T07:54:53.266Z,13.85
2023-02-04T07:55:55.469Z,17.25
2023-02-04T07:56:57.718Z,18.02
2023-02-04T07:57:59.923Z,11.80
2023-02-04T07:59:02.141Z,17.60
2023-02-04T08:00:05.510Z,17.48
2023-02-04T08:01:15.014Z,16.52
2023-02-04T08:02:17.321Z,30.38
2023-02-04T08:03:19.618Z,39.45
2023-02-04T08:04:21.821Z,31.75
2023-02-04T08:05:24.019Z,31.67
2023-02-04T08:06:26.224Z,30.42
2023-02-04T08:07:28.383Z,14.63
2023-02-04T08:08:30.652Z,11.88
2023-02-04T08:09:32.912Z,28.60
2023-02-04T08:10:35.180Z,25.55
2023-02-04T08:11:37.397Z,16.80
2023-02-04T08:12:39.654Z,14.88
2023-02-04T08:13:41.835Z,9.20
2023-02-04T08:14:44.004Z,15.73
2023-02-04T08:15:46.276Z,12.73
2023-02-04T08:16:48.508Z,11.15
2023-02-04T08:17:50.711Z,17.08
2023-02-04T08:18:52.867Z,12.63
2023-02-04T08:19:56.552Z,14.02
2023-02-04T08:21:00.528Z,12.65
2023-02-04T08:22:02.799Z,13.98
2023-02-04T08:23:05.022Z,14.57
2023-02-04T08:24:07.255Z,15.13
2023-02-04T08:25:11.579Z,12.25
2023-02-04T08:26:13.766Z,11.80
2023-02-04T08:27:16.064Z,12.60
2023-02-04T08:28:18.371Z,14.10
2023-02-04T08:29:20.680Z,11.88
2023-02-04T08:30:22.912Z,11.90
2023-02-04T08:31:25.203Z,9.93
2023-02-04T08:32:29.201Z,10.45
2023-02-04T08:33:31.514Z,9.93
2023-02-04T08:34:33.751Z,12.10
2023-02-04T08:35:35.963Z,11.45
2023-02-04T08:36:38.126Z,16.00
2023-02-04T08:37:40.692Z,11.82
2023-02-04T08:38:44.496Z,19.10
2023-02-04T08:39:47.385Z,10.73
2023-02-04T08:40:49.601Z,15.38
2023-02-04T08:41:51.773Z,12.18
2023-02-04T08:42:54.098Z,14.43
2023-02-04T08:43:56.354Z,10.35
2023-02-04T08:44:58.576Z,15.68
2023-02-04T08:46:00.908Z,14.65
2023-02-04T08:47:03.119Z,17.48
2023-02-04T08:48:06.500Z,15.77
2023-02-04T08:49:08.979Z,13.40
2023-02-04T08:50:11.479Z,14.73
2023-02-04T08:51:13.769Z,12.38
2023-02-04T08:52:16.098Z,13.18
2023-02-04T08:53:18.349Z,13.13
2023-02-04T08:54:20.821Z,14.30
2023-02-04T08:55:23.044Z,12.50
2023-02-04T08:56:25.369Z,13.07
2023-02-04T08:57:27.567Z,14.93
2023-02-04T08:58:30.441Z,12.65
2023-02-04T08:59:32.751Z,17.83
2023-02-04T09:00:35.384Z,9.88
2023-02-04T09:01:37.847Z,17.00
2023-02-04T09:02:40.018Z,20.23
2023-02-04T09:03:42.235Z,16.08
2023-02-04T09:04:44.441Z,16.25
2023-02-04T09:05:47.590Z,14.18
2023-02-04T09:06:51.377Z,22.15
2023-02-04T09:07:53.610Z,19.95
2023-02-04T09:08:55.871Z,17.55
2023-02-04T09:09:58.094Z,14.90
2023-02-04T09:11:00.319Z,15.60
2023-02-04T09:12:03.224Z,19.15
2023-02-04T09:13:05.378Z,18.05
2023-02-04T09:14:07.958Z,15.93
2023-02-04T09:15:11.923Z,19.88
2023-02-04T09:16:14.462Z,21.52
2023-02-04T09:17:16.840Z,18.85
2023-02-04T09:18:21.933Z,20.33
2023-02-04T09:19:25.564Z,20.80
2023-02-04T09:20:29.371Z,24.38
2023-02-04T09:21:33.294Z,21.92
2023-02-04T09:22:37.756Z,25.55
2023-02-04T09:23:39.922Z,17.15
2023-02-04T09:24:42.085Z,17.65
2023-02-04T09:25:45.747Z,21.00
2023-02-04T09:26:47.968Z,17.13
2023-02-04T09:27:50.230Z,22.73
2023-02-04T09:28:52.470Z,20.25
2023-02-04T09:29:54.721Z,20.63
2023-02-04T09:30:56.988Z,22.75
2023-02-04T09:31:59.334Z,24.42
2023-02-04T09:33:02.638Z,26.60
2023-02-04T09:34:05.061Z,19.48
2023-02-04T09:35:07.551Z,17.77
2023-02-04T09:36:10.045Z,15.63
2023-02-04T09:37:12.467Z,17.33
2023-02-04T09:38:15.258Z,23.20
2023-02-04T09:39:17.509Z,20.85
2023-02-04T09:40:20.802Z,21.40
2023-02-04T09:41:23.259Z,18.42
2023-02-04T09:42:26.575Z,20.48
2023-02-04T09:43:31.939Z,19.52
2023-02-04T09:44:34.276Z,20.58
2023-02-04T09:45:36.919Z,21.80
2023-02-04T09:46:39.464Z,25.90
2023-02-04T09:47:41.653Z,20.10
2023-02-04T09:48:43.910Z,28.58
2023-02-04T09:49:47.405Z,22.40
2023-02-04T09:50:51.577Z,23.88
2023-02-04T09:51:54.475Z,19.55
2023-02-04T09:52:58.531Z,22.75
2023-02-04T09:54:12.171Z,23.02
2023-02-04T09:55:16.281Z,21.60
2023-02-04T09:56:19.326Z,22.95
2023-02-04T09:57:21.582Z,24.70
2023-02-04T09:58:26.508Z,21.50
2023-02-04T09:59:29.478Z,21.38
2023-02-04T10:00:32.166Z,23.20
2023-02-04T10:01:34.601Z,27.08
2023-02-04T10:02:36.845Z,21.38
2023-02-04T10:03:46.465Z,24.70
2023-02-04T10:04:50.899Z,27.42
2023-02-04T10:05:53.556Z,24.02
2023-02-04T10:06:58.559Z,22.75
2023-02-04T10:08:00.830Z,22.70
2023-02-04T10:09:03.431Z,20.10
2023-02-04T10:10:06.117Z,19.90
2023-02-04T10:11:09.306Z,24.20
2023-02-04T10:12:11.518Z,22.25
2023-02-04T10:13:19.582Z,25.48
2023-02-04T10:14:23.200Z,21.25
2023-02-04T10:15:26.169Z,29.23
2023-02-04T10:16:31.356Z,22.30
2023-02-04T10:17:33.634Z,21.13
2023-02-04T10:18:36.050Z,22.08
2023-02-04T10:19:38.288Z,22.83
2023-02-04T10:20:40.508Z,24.90
2023-02-04T10:21:45.173Z,22.60
2023-02-04T10:22:50.265Z,24.50
2023-02-04T10:23:55.962Z,24.42
2023-02-04T10:24:58.269Z,18.90
2023-02-04T10:26:00.432Z,21.50
2023-02-04T10:27:10.476Z,21.73
2023-02-04T10:28:12.755Z,20.42
2023-02-04T10:29:17.765Z,25.95
2023-02-04T10:30:23.198Z,23.83
2023-02-04T10:31:40.323Z,17.58
2023-02-04T10:32:43.684Z,22.67
2023-02-04T10:33:45.939Z,24.08
2023-02-04T10:34:48.165Z,21.83
2023-02-04T10:35:52.456Z,22.83
2023-02-04T10:36:57.672Z,26.17
2023-02-04T10:38:05.767Z,21.80
2023-02-04T10:39:19.637Z,24.77
2023-02-04T10:40:35.796Z,20.75
2023-02-04T10:41:39.944Z,18.08
2023-02-04T10:42:49.441Z,25.08
2023-02-04T10:44:05.440Z,17.50
2023-02-04T10:45:24.042Z,18.52
2023-02-04T10:46:30.862Z,20.40
2023-02-04T10:47:33.082Z,20.10
2023-02-04T10:48:42.224Z,21.50
2023-02-04T10:50:02.930Z,20.48
2023-02-04T10:51:05.486Z,20.40
2023-02-04T10:52:17.462Z,24.60
2023-02-04T10:53:41.592Z,19.48
2023-02-04T10:54:44.097Z,20.63
2023-02-04T10:55:48.175Z,22.10
2023-02-04T10:56:50.428Z,20.75
2023-02-04T10:57:53.657Z,20.65
2023-02-04T10:58:55.900Z,21.55
2023-02-04T11:00:00.246Z,18.77
2023-02-04T11:01:02.653Z,18.13
2023-02-04T11:02:45.824Z,21.73
2023-02-04T11:03:49.531Z,22.33
2023-02-04T11:04:53.138Z,18.30
2023-02-04T11:06:00.218Z,20.33
2023-02-04T11:07:02.489Z,16.95
2023-02-04T11:08:26.369Z,16.65
2023-02-04T11:09:28.691Z,27.90
2023-02-04T11:10:34.123Z,18.50
2023-02-04T11:11:36.892Z,22.92
2023-02-04T11:12:55.540Z,21.38
2023-02-04T11:14:01.949Z,15.13
2023-02-04T11:15:05.157Z,19.60
2023-02-04T11:16:11.806Z,24.30
2023-02-04T11:17:20.654Z,23.27
2023-02-04T11:18:22.774Z,28.65
2023-02-04T11:19:35.181Z,25.15
2023-02-04T11:21:44.926Z,27.50
2023-02-04T11:22:53.630Z,25.73
2023-02-04T11:24:10.970Z,18.98
2023-02-04T11:25:36.153Z,28.92
2023-02-04T11:26:45.798Z,21.15
2023-02-04T11:27:48.049Z,26.02
2023-02-04T11:28:59.068Z,25.42
2023-02-04T11:30:20.347Z,29.33
2023-02-04T11:31:22.560Z,27.50
2023-02-04T11:32:37.922Z,30.98
2023-02-04T11:33:42.504Z,15.05
2023-02-04T11:34:50.996Z,25.83
2023-02-04T11:36:04.600Z,25.63
2023-02-04T11:37:19.199Z,22.92
2023-02-04T11:38:30.548Z,18.38
2023-02-04T11:39:49.817Z,21.55
2023-02-04T11:40:57.122Z,22.75
2023-02-04T11:42:00.291Z,22.10
2023-02-04T11:43:15.851Z,21.92
2023-02-04T11:44:19.448Z,17.27
2023-02-04T11:45:27.691Z,22.15
2023-02-04T11:46:30.184Z,24.13
2023-02-04T11:47:39.476Z,23.73
2023-02-04T11:48:42.580Z,24.90
2023-02-04T11:49:52.916Z,27.98
2023-02-04T11:51:03.133Z,20.45
2023-02-04T11:52:10.338Z,21.85
2023-02-04T11:53:12.616Z,17.10
2023-02-04T11:54:18.928Z,21.33
2023-02-04T11:55:21.155Z,18.92
2023-02-04T11:56:27.538Z,23.92
2023-02-04T11:57:37.344Z,23.38
2023-02-04T11:58:42.048Z,22.25
2023-02-04T11:59:44.224Z,28.30
2023-02-04T12:00:47.074Z,23.50
2023-02-04T12:01:49.426Z,21.67
2023-02-04T12:03:07.784Z,20.45
2023-02-04T12:04:23.587Z,20.02
2023-02-04T12:05:47.246Z,24.25
2023-02-04T12:07:03.819Z,23.00
2023-02-04T12:08:22.512Z,27.48
2023-02-04T12:09:29.719Z,24.35
2023-02-04T12:10:34.183Z,28.58
2023-02-04T12:11:36.375Z,24.45
2023-02-04T12:12:52.151Z,21.30
2023-02-04T12:13:56.406Z,26.75
2023-02-04T12:15:03.902Z,21.42
2023-02-04T12:16:07.651Z,17.40
2023-02-04T12:17:17.641Z,25.48
2023-02-04T12:18:19.901Z,20.83
2023-02-04T12:19:22.408Z,23.90
2023-02-04T12:20:24.606Z,21.38
2023-02-04T12:21:26.846Z,20.30
2023-02-04T12:22:29.292Z,23.38
2023-02-04T12:23:32.430Z,18.90
2023-02-04T12:24:34.616Z,22.70
2023-02-04T12:25:36.851Z,19.48
2023-02-04T12:26:39.065Z,16.13
2023-02-04T12:27:41.307Z,18.20
2023-02-04T12:28:43.527Z,20.10
2023-02-04T12:29:45.945Z,21.10
2023-02-04T12:30:48.462Z,21.60
2023-02-04T12:31:50.809Z,20.77
2023-02-04T12:32:53.798Z,23.05
2023-02-04T12:33:55.998Z,23.50
2023-02-04T12:34:58.205Z,21.60
2023-02-04T12:36:00.578Z,20.15
2023-02-04T12:37:02.785Z,17.63
2023-02-04T12:38:04.995Z,18.35
2023-02-04T12:39:07.165Z,18.83
2023-02-04T12:40:15.886Z,24.63
2023-02-04T12:41:19.839Z,20.08
2023-02-04T12:42:22.148Z,19.65
2023-02-04T12:43:27.831Z,21.13
2023-02-04T12:44:31.054Z,21.35
2023-02-04T12:45:34.164Z,21.73
2023-02-04T12:46:36.586Z,18.52
2023-02-04T12:47:38.839Z,20.98
2023-02-04T12:48:41.136Z,19.98
2023-02-04T12:49:43.717Z,24.92
2023-02-04T12:50:45.932Z,21.35
2023-02-04T12:51:48.158Z,18.38
2023-02-04T12:52:51.904Z,17.77
2023-02-04T12:53:54.214Z,17.88
2023-02-04T12:54:56.387Z,18.13
2023-02-04T12:55:58.631Z,20.20
2023-02-04T12:57:02.670Z,21.27
2023-02-04T12:58:05.065Z,20.58
2023-02-04T12:59:07.302Z,15.23
2023-02-04T13:00:10.157Z,20.95
2023-02-04T13:01:12.491Z,20.25
2023-02-04T13:02:15.357Z,19.20
2023-02-04T13:03:17.618Z,20.55
2023-02-04T13:04:19.857Z,18.40
2023-02-04T13:05:22.118Z,25.25
2023-02-04T13:06:24.333Z,23.10
2023-02-04T13:07:26.560Z,19.30
2023-02-04T13:08:28.780Z,17.30
2023-02-04T13:09:30.954Z,25.45
2023-02-04T13:10:33.145Z,20.48
2023-02-04T13:11:35.325Z,21.77
2023-02-04T13:12:37.614Z,21.63
2023-02-04T13:13:40.503Z,19.00
2023-02-04T13:14:42.815Z,20.08
2023-02-04T13:15:45.603Z,17.65
2023-02-04T13:16:47.765Z,17.58
2023-02-04T13:17:49.932Z,22.95
2023-02-04T13:18:52.295Z,14.02
2023-02-04T13:19:54.499Z,15.63
2023-02-04T13:20:56.648Z,17.77
2023-02-04T13:21:59.484Z,17.95
2023-02-04T13:23:01.798Z,15.73
2023-02-04T13:24:04.233Z,18.35
2023-02-04T13:25:06.736Z,15.02
2023-02-04T13:26:08.946Z,17.83
2023-02-04T13:27:11.193Z,18.80
2023-02-04T13:28:13.963Z,21.88
2023-02-04T13:29:16.219Z,24.63
2023-02-04T13:30:18.536Z,19.58
2023-02-04T13:31:21.023Z,18.77
2023-02-04T13:32:23.585Z,22.15
2023-02-04T13:33:25.823Z,20.55
2023-02-04T13:34:28.135Z,22.20
2023-02-04T13:35:30.757Z,24.05
2023-02-04T13:36:33.244Z,20.10
2023-02-04T13:37:35.531Z,21.75
2023-02-04T13:38:37.714Z,21.67
2023-02-04T13:39:39.906Z,21.73
2023-02-04T13:40:42.156Z,28.00
2023-02-04T13:41:44.532Z,23.05
2023-02-04T13:42:46.771Z,18.98
2023-02-04T13:43:49.013Z,22.17
2023-02-04T13:44:51.256Z,23.50
2023-02-04T13:45:53.506Z,20.25
2023-02-04T13:46:55.769Z,22.27
2023-02-04T13:47:58.025Z,20.85
2023-02-04T13:49:00.459Z,22.65